Pagrindinis puslapis
METAR-TAF:

METAR-TAF

Oro uostai :

Natalis, Rio Grande do Norte, Brazilija

platuma: 05-55S, ilguma: 035-15W, Aukštis: 52 m

Dabartinis oras

Ataskaita buvo paskelbta 1 valandą ir 8 minutes, ne 09:00 UTC
Vėjas 3 kt iš Pietryčių
Temperatūra 26°C
Drėgmė 79%
Slėgis 1013 hPa
Matomumas 10 km arba daugiau
Išsisklaidę debesys ne aukštis 2300 ft

METAR: SBNT 090900Z 13003KT 9999 SCT023 26/22 Q1013

Laikas: 07:08 (10:08 UTC)

Prognozė

Ataskaita buvo paskelbta 6 valandos ir 8 minutes, ne 04:00 UTC
Prognozė galioja nuo 09 metu 06 UTC su 09 metu 18 UTC
Vėjas 5 kt iš Rytų
Matomumas 10 km arba daugiau
Mažai debesys ne aukštis 1700 ft
Tapsmas
nuo 09 metu 08 UTC su 09 metu 10 UTC
Vėjas 10 kt iš Rytų/Šiaurės Rytų
Su prošvaistėmis ne aukštis 2500 ft
Tapsmas
nuo 09 metu 15 UTC su 09 metu 17 UTC
Vėjas 10 kt iš Rytų
Mažai debesys ne aukštis 3000 ft

TAF: SBNT 090400Z 0906/0918 09005KT 9999 FEW017 TN25/0906Z TX31/0914Z BECMG 0908/0910 06010KT BKN025 BECMG 0915/0917 09010KT FEW030 RMK PEH

Orai ataskaitas ir orų prognozės (METAR, TAF).

turimą stotys yra geltonos ir raudonos taškus žemėlapyje.

Perkelti pele per norėdami pamatyti stoties vardą.

Tada spustelėkite, norėdami matyti oro stebėjimo ir prognozės.

Norėdami pakeisti žemėlapį: spustelėkite ant žalios mygtukų su juodo kryžiaus žemyn,; žalią mygtuką su brūkšneliu, jei norite nutolinti; arba žalių rodyklių gretimoms žemėlapius.


METAR-TAF: